Athens, Vermont
Current Conditions -  °F | °C
As of 3:54 AM on Wednesday 28 Jan 2015 (Local Time) from KVSF Reporting Station
Overcast Overcast  
Wind Chill: -5°   Ceiling: 3500
Heat Index: 10°   Visibility: 10mi
Dew Point: -2°   Wind: 12mph
Humidity: 58%   Direction: 340°NNW
Pressure: 29.83"   Gusts: 20mph
Location:  43.2811°N, 72.6352°W
Report Text: KVSF 280854Z AUTO 34010G17KT 10SM BKN035 OVC055 M12/M19 A2983 RMK AO2 SLP114 60000 T11221189 53016 TSNO
Loading
Personal Weather Stations






























Interactive Weather Map New forecast layout! Learn more

10-Day Weather Forecast

Advertisements
Track Severe Weather on mobile